Time;durP1;ratioP1;P1;durP2;ratioP2;P2;SDS_P1;SDS_P2;PMS_P1;PMS_P2;Temp;Humidity;BMP_temperature;BMP_pressure;BME280_temperature;BME280_humidity;BME280_pressure;Samples;Min_cycle;Max_cycle;Signal;HPM_P1;HPM_P2
2021/04/03 00:01:34;;;;;;;17.33;4.60;;;4.30;99.90;;;;;;4145265;28;20117;-81
2021/04/03 00:03:35;;;;;;;19.45;5.65;;;4.30;99.90;;;;;;4130807;28;20038;-81
2021/04/03 00:05:37;;;;;;;19.95;6.22;;;4.30;99.90;;;;;;4154524;28;20426;-81
2021/04/03 00:07:38;;;;;;;20.90;4.90;;;4.20;99.90;;;;;;4163762;28;20025;-81
2021/04/03 00:09:39;;;;;;;19.88;4.95;;;4.20;99.90;;;;;;4145150;28;20587;-82
2021/04/03 00:11:39;;;;;;;14.77;4.28;;;4.20;99.90;;;;;;4143998;28;20448;-81
2021/04/03 00:13:42;;;;;;;27.80;5.78;;;4.30;99.90;;;;;;4161344;28;20056;-81
2021/04/03 00:15:43;;;;;;;17.23;5.23;;;4.30;99.90;;;;;;4161291;28;20108;-81
2021/04/03 00:17:44;;;;;;;14.35;4.18;;;4.30;99.90;;;;;;4143927;28;20339;-81
2021/04/03 00:19:45;;;;;;;15.73;5.72;;;4.40;99.90;;;;;;4160694;28;20029;-80
2021/04/03 00:21:45;;;;;;;21.55;5.20;;;4.50;99.90;;;;;;4143602;28;20037;-81
2021/04/03 00:23:46;;;;;;;23.70;5.10;;;4.50;99.90;;;;;;4152553;28;20026;-81
2021/04/03 00:25:48;;;;;;;17.67;3.55;;;4.50;99.90;;;;;;4152951;28;20032;-81
2021/04/03 00:27:48;;;;;;;20.42;4.68;;;4.70;99.90;;;;;;4135769;28;20406;-81
2021/04/03 00:29:49;;;;;;;27.17;5.10;;;4.80;99.90;;;;;;4161472;28;20132;-81
2021/04/03 00:31:50;;;;;;;20.65;5.40;;;4.80;99.90;;;;;;4161235;28;20116;-81
2021/04/03 00:33:51;;;;;;;19.00;4.40;;;4.80;99.90;;;;;;4143523;28;20025;-81
2021/04/03 00:35:52;;;;;;;19.63;4.90;;;4.80;99.90;;;;;;4135836;28;20050;-81
2021/04/03 00:37:54;;;;;;;21.00;5.25;;;4.80;99.90;;;;;;4143280;28;20509;-81
2021/04/03 00:39:54;;;;;;;23.65;4.13;;;4.80;99.90;;;;;;4161146;28;20029;-82
2021/04/03 00:41:55;;;;;;;25.25;5.97;;;4.80;99.90;;;;;;4143769;28;20041;-81
2021/04/03 00:43:56;;;;;;;16.63;4.30;;;4.80;99.90;;;;;;4136884;28;20425;-81
2021/04/03 00:45:56;;;;;;;11.93;4.90;;;4.80;99.90;;;;;;4129776;28;20029;-81
2021/04/03 00:47:57;;;;;;;18.63;5.45;;;4.90;99.90;;;;;;4136771;28;20394;-81
2021/04/03 00:49:58;;;;;;;14.45;4.53;;;4.90;99.90;;;;;;4145986;28;20036;-81
2021/04/03 00:52:07;;;;;;;15.73;5.30;;;4.90;99.90;;;;;;4136527;28;20089;-81
2021/04/03 00:54:08;;;;;;;16.58;4.78;;;4.90;99.90;;;;;;4142996;28;20568;-81
2021/04/03 00:56:09;;;;;;;17.23;4.78;;;4.90;99.90;;;;;;4133345;28;20428;-81
2021/04/03 00:58:11;;;;;;;14.02;4.28;;;4.90;99.90;;;;;;4154196;28;20064;-81
2021/04/03 01:00:12;;;;;;;20.17;4.97;;;4.90;99.90;;;;;;4144824;28;20057;-81
2021/04/03 01:02:13;;;;;;;19.52;4.78;;;4.90;99.90;;;;;;4144720;28;20030;-82
2021/04/03 01:04:13;;;;;;;21.63;5.30;;;4.90;99.90;;;;;;4144572;28;20080;-81
2021/04/03 01:06:14;;;;;;;19.70;6.03;;;5.00;99.90;;;;;;4143932;28;20505;-82
2021/04/03 01:08:15;;;;;;;11.98;4.90;;;5.00;99.90;;;;;;4144799;28;20026;-82
2021/04/03 01:10:18;;;;;;;19.63;5.32;;;5.00;99.90;;;;;;4144861;28;20064;-82
2021/04/03 01:12:32;;;;;;;;;;;5.10;99.90;;;;;;4143892;28;20053;-82
2021/04/03 01:14:42;;;;;;;19.20;4.40;;;5.10;99.90;;;;;;4161237;28;19996;-82
2021/04/03 01:16:49;;;;;;;18.13;4.78;;;5.20;99.90;;;;;;4162522;28;20080;-82
2021/04/03 01:19:06;;;;;;;15.05;5.05;;;5.20;99.90;;;;;;4145436;28;20030;-82
2021/04/03 01:21:15;;;;;;;17.98;5.30;;;5.20;99.90;;;;;;4161830;28;20373;-81
2021/04/03 01:23:46;;;;;;;19.98;5.18;;;5.20;99.90;;;;;;4162320;28;20558;-82
2021/04/03 01:26:02;;;;;;;23.40;5.38;;;5.20;99.90;;;;;;4156619;28;20030;-82
2021/04/03 01:28:25;;;;;;;27.88;7.75;;;5.30;99.90;;;;;;4139041;28;20120;-81
2021/04/03 01:30:27;;;;;;;25.23;5.63;;;5.40;99.90;;;;;;4162292;28;20030;-82
2021/04/03 01:32:49;;;;;;;18.13;5.70;;;5.40;99.90;;;;;;4162293;28;20053;-82
2021/04/03 01:34:51;;;;;;;18.35;4.35;;;5.30;99.90;;;;;;4152282;28;20108;-82
2021/04/03 01:37:06;;;;;;;25.47;6.17;;;5.30;99.90;;;;;;4159268;28;20075;-82
2021/04/03 01:39:12;;;;;;;25.23;5.90;;;5.30;99.90;;;;;;4132063;28;20026;-82
2021/04/03 01:41:15;;;;;;;18.38;5.15;;;5.30;99.90;;;;;;4128591;28;20034;-82
2021/04/03 01:43:23;;;;;;;25.88;7.28;;;5.30;99.90;;;;;;4162449;28;20388;-82
2021/04/03 01:45:24;;;;;;;20.90;5.07;;;5.40;99.90;;;;;;4175524;28;20040;-82
2021/04/03 01:47:29;;;;;;;22.25;5.30;;;5.40;99.90;;;;;;4162436;28;20432;-81
2021/04/03 01:49:32;;;;;;;21.58;4.88;;;5.40;99.90;;;;;;4164006;28;20030;-82
2021/04/03 01:51:34;;;;;;;21.88;5.22;;;5.40;99.90;;;;;;4148111;28;20068;-82
2021/04/03 01:53:35;;;;;;;26.38;4.82;;;5.40;99.90;;;;;;4147965;28;20060;-82
2021/04/03 01:55:37;;;;;;;17.73;5.00;;;5.40;99.90;;;;;;4147501;28;20038;-82
2021/04/03 01:57:40;;;;;;;26.48;6.15;;;5.40;99.90;;;;;;4148012;28;20037;-83
2021/04/03 01:59:42;;;;;;;;;;;5.40;99.90;;;;;;4148012;28;20120;-83
2021/04/03 02:01:44;;;;;;;15.32;4.93;;;5.30;99.90;;;;;;4147789;28;19917;-82
2021/04/03 02:03:47;;;;;;;22.10;5.43;;;5.30;99.90;;;;;;4147842;28;20469;-82
2021/04/03 02:05:48;;;;;;;24.05;6.70;;;5.30;99.90;;;;;;4164171;28;20269;-82
2021/04/03 02:07:50;;;;;;;23.95;7.25;;;5.40;99.90;;;;;;4147509;28;20488;-82
2021/04/03 02:09:53;;;;;;;21.05;5.10;;;5.40;99.90;;;;;;4165560;28;20025;-82
2021/04/03 02:11:54;;;;;;;26.58;6.07;;;5.40;99.90;;;;;;4147190;28;20080;-82
2021/04/03 02:13:56;;;;;;;22.85;5.45;;;5.40;99.90;;;;;;4147804;28;20032;-83
2021/04/03 02:16:05;;;;;;;23.38;5.25;;;5.40;99.90;;;;;;4164901;28;20088;-82
2021/04/03 02:18:08;;;;;;;16.73;4.90;;;5.50;99.90;;;;;;4164654;28;20026;-81
2021/04/03 02:20:10;;;;;;;22.00;5.40;;;5.50;99.90;;;;;;4147433;28;20022;-81
2021/04/03 02:22:14;;;;;;;22.52;7.18;;;5.50;99.90;;;;;;4165348;28;20026;-81
2021/04/03 02:24:15;;;;;;;25.45;7.70;;;5.60;99.90;;;;;;4164618;28;20033;-82
2021/04/03 02:26:16;;;;;;;23.80;6.03;;;5.60;99.90;;;;;;4164650;28;20030;-82
2021/04/03 02:28:16;;;;;;;17.45;4.57;;;5.70;99.90;;;;;;4165152;28;20388;-82
2021/04/03 02:30:22;;;;;;;21.20;4.85;;;5.70;99.90;;;;;;4147608;28;20481;-81
2021/04/03 02:32:23;;;;;;;16.45;5.40;;;5.70;99.90;;;;;;4165041;28;20026;-82
2021/04/03 02:34:24;;;;;;;18.52;5.80;;;5.70;99.90;;;;;;4147360;28;20037;-83
2021/04/03 02:36:24;;;;;;;23.23;7.38;;;5.80;99.90;;;;;;4162202;28;20112;-82
2021/04/03 02:38:25;;;;;;;28.83;5.55;;;5.80;99.90;;;;;;4157406;28;20026;-82
2021/04/03 02:40:29;;;;;;;17.23;5.88;;;5.80;99.90;;;;;;4162039;28;20055;-82
2021/04/03 02:42:30;;;;;;;25.67;5.45;;;5.80;99.90;;;;;;4144824;28;20542;-82
2021/04/03 02:44:37;;;;;;;14.75;5.05;;;5.80;99.90;;;;;;4163143;28;20040;-82
2021/04/03 02:46:54;;;;;;;17.80;5.68;;;5.80;99.90;;;;;;4162744;28;20033;-82
2021/04/03 02:49:01;;;;;;;17.27;5.03;;;5.80;99.90;;;;;;4145118;28;20061;-82
2021/04/03 02:51:03;;;;;;;18.88;5.00;;;5.80;99.90;;;;;;4162656;28;20042;-81
2021/04/03 02:53:10;;;;;;;26.77;8.95;;;5.80;99.90;;;;;;4145436;28;20034;-82
2021/04/03 02:55:13;;;;;;;20.33;5.85;;;5.70;99.90;;;;;;4162474;28;20513;-82
2021/04/03 02:57:15;;;;;;;15.32;4.38;;;5.70;99.90;;;;;;4145826;28;20034;-82
2021/04/03 02:59:21;;;;;;;21.90;6.40;;;5.70;99.90;;;;;;4146236;28;20026;-82
2021/04/03 03:01:23;;;;;;;21.05;4.85;;;5.60;99.90;;;;;;4146830;28;20032;-81
2021/04/03 03:03:26;;;;;;;28.38;5.88;;;5.60;99.90;;;;;;4144985;28;20100;-82
2021/04/03 03:05:27;;;;;;;24.17;5.45;;;5.60;99.90;;;;;;4157849;28;20250;-82
2021/04/03 03:07:29;;;;;;;20.42;6.05;;;5.50;99.90;;;;;;4146328;28;20026;-81
2021/04/03 03:09:31;;;;;;;21.83;5.18;;;5.50;99.90;;;;;;4163782;28;20024;-81
2021/04/03 03:11:32;;;;;;;18.42;5.10;;;5.40;99.90;;;;;;4145878;28;20100;-81
2021/04/03 03:13:34;;;;;;;26.60;5.47;;;5.30;99.90;;;;;;4146762;28;20030;-81
2021/04/03 03:15:35;;;;;;;21.92;5.05;;;5.10;99.90;;;;;;4164381;28;20172;-82
2021/04/03 03:17:36;;;;;;;25.27;6.10;;;5.00;99.90;;;;;;4146197;28;20034;-82
2021/04/03 03:19:40;;;;;;;20.27;5.10;;;4.90;99.90;;;;;;4163866;28;20037;-81
2021/04/03 03:21:41;;;;;;;15.93;5.80;;;4.80;99.90;;;;;;4146104;28;20082;-81
2021/04/03 03:23:42;;;;;;;19.30;5.07;;;4.60;99.90;;;;;;4130155;28;20798;-81
2021/04/03 03:25:43;;;;;;;22.95;6.78;;;4.40;99.90;;;;;;4146771;28;20031;-82
2021/04/03 03:27:46;;;;;;;19.67;4.75;;;4.30;99.90;;;;;;4146205;28;20046;-82
2021/04/03 03:29:48;;;;;;;31.85;6.45;;;4.20;99.90;;;;;;4146659;28;20023;-82
2021/04/03 03:31:49;;;;;;;25.02;5.97;;;4.00;99.90;;;;;;4163628;28;20034;-81
2021/04/03 03:33:50;;;;;;;25.48;5.90;;;4.00;99.90;;;;;;4145437;28;20159;-83
2021/04/03 03:35:50;;;;;;;21.50;5.50;;;3.90;99.90;;;;;;4163253;28;20030;-81
2021/04/03 03:37:52;;;;;;;27.33;7.22;;;3.90;99.90;;;;;;4161696;28;20033;-81
2021/04/03 03:39:54;;;;;;;23.77;8.25;;;3.80;99.90;;;;;;4145905;28;20034;-81
2021/04/03 03:41:58;;;;;;;27.63;7.35;;;3.70;99.90;;;;;;4144576;28;20485;-81
2021/04/03 03:44:00;;;;;;;25.88;7.57;;;3.70;99.90;;;;;;4163274;28;20061;-81
2021/04/03 03:46:06;;;;;;;30.13;7.38;;;3.60;99.90;;;;;;4163302;28;20036;-82
2021/04/03 03:48:07;;;;;;;29.65;6.93;;;3.60;99.90;;;;;;4162753;28;20378;-81
2021/04/03 03:50:09;;;;;;;31.20;7.03;;;3.60;99.90;;;;;;4145621;28;20033;-83
2021/04/03 03:52:11;;;;;;;38.42;7.15;;;3.60;99.90;;;;;;4144971;28;20046;-83
2021/04/03 03:54:12;;;;;;;25.90;7.47;;;3.50;99.90;;;;;;4142331;28;20049;-82
2021/04/03 03:56:16;;;;;;;26.63;7.10;;;3.40;99.90;;;;;;4161815;28;20041;-82
2021/04/03 03:58:17;;;;;;;24.20;5.70;;;3.40;99.90;;;;;;4162986;28;20021;-81
2021/04/03 04:00:18;;;;;;;22.30;6.90;;;3.30;99.90;;;;;;4145016;28;20036;-80
2021/04/03 04:02:19;;;;;;;18.23;6.28;;;3.30;99.90;;;;;;4163330;28;20030;-81
2021/04/03 04:04:20;;;;;;;28.35;7.18;;;3.30;99.90;;;;;;4162876;28;20028;-81
2021/04/03 04:06:20;;;;;;;27.20;6.82;;;3.20;99.90;;;;;;4145262;28;20030;-80
2021/04/03 04:08:22;;;;;;;30.30;9.77;;;3.10;99.90;;;;;;4163143;28;20033;-80
2021/04/03 04:10:23;;;;;;;25.98;6.18;;;3.20;99.90;;;;;;4163173;28;20025;-81
2021/04/03 04:12:28;;;;;;;30.25;6.75;;;3.20;99.90;;;;;;4162577;28;20033;-81
2021/04/03 04:14:33;;;;;;;41.88;9.70;;;3.10;99.90;;;;;;4145376;28;20022;-82
2021/04/03 04:16:34;;;;;;;26.88;6.30;;;3.10;99.90;;;;;;4162285;28;20049;-81
2021/04/03 04:18:34;;;;;;;26.50;6.75;;;3.10;99.90;;;;;;4145190;28;20120;-81
2021/04/03 04:20:35;;;;;;;26.55;6.32;;;3.20;99.90;;;;;;4145653;28;20053;-81
2021/04/03 04:22:36;;;;;;;29.45;6.55;;;3.20;99.90;;;;;;4163306;28;20025;-82
2021/04/03 04:24:36;;;;;;;33.95;6.35;;;3.10;99.90;;;;;;4145675;28;20029;-82
2021/04/03 04:26:37;;;;;;;31.90;7.63;;;3.10;99.90;;;;;;4145428;28;20026;-81
2021/04/03 04:28:38;;;;;;;44.60;9.00;;;3.00;99.90;;;;;;4162757;28;20029;-81
2021/04/03 04:30:39;;;;;;;32.90;8.60;;;3.00;99.90;;;;;;4145820;28;20104;-82
2021/04/03 04:32:41;;;;;;;30.85;6.68;;;2.90;99.90;;;;;;4145746;28;20428;-81
2021/04/03 04:34:42;;;;;;;22.88;6.40;;;2.70;99.90;;;;;;4162769;28;20037;-81
2021/04/03 04:36:42;;;;;;;36.95;7.07;;;2.70;99.90;;;;;;4145144;28;20393;-81
2021/04/03 04:38:43;;;;;;;32.50;6.95;;;2.60;99.90;;;;;;4163116;28;20465;-81
2021/04/03 04:40:44;;;;;;;45.05;7.47;;;2.60;99.90;;;;;;4145357;28;20030;-81
2021/04/03 04:42:45;;;;;;;37.67;8.23;;;2.60;99.90;;;;;;4145015;28;20061;-82
2021/04/03 04:44:45;;;;;;;34.65;7.55;;;2.60;99.90;;;;;;4145461;28;20079;-81
2021/04/03 04:46:46;;;;;;;41.63;8.63;;;2.70;99.90;;;;;;4162778;28;20135;-81
2021/04/03 04:48:46;;;;;;;39.95;7.63;;;2.70;99.90;;;;;;4145020;28;20034;-82
2021/04/03 04:50:47;;;;;;;38.17;8.02;;;2.70;99.90;;;;;;4162835;28;20025;-82
2021/04/03 04:52:48;;;;;;;38.72;7.82;;;2.60;99.90;;;;;;4144100;28;21483;-82
2021/04/03 04:54:48;;;;;;;39.70;10.10;;;2.60;99.90;;;;;;4145175;28;20499;-82
2021/04/03 04:56:49;;;;;;;38.28;8.65;;;2.50;99.90;;;;;;4156579;28;20157;-82
2021/04/03 04:58:50;;;;;;;45.83;9.02;;;2.50;99.90;;;;;;4159649;28;20041;-82
2021/04/03 05:00:50;;;;;;;41.47;9.18;;;2.50;99.90;;;;;;4162724;28;20175;-82
2021/04/03 05:02:51;;;;;;;35.03;9.63;;;2.50;99.90;;;;;;4144314;28;20029;-82
2021/04/03 05:04:52;;;;;;;46.67;9.07;;;2.50;99.90;;;;;;4162179;28;20040;-82
2021/04/03 05:06:52;;;;;;;42.28;8.32;;;2.50;99.90;;;;;;4145312;28;20083;-82
2021/04/03 05:08:53;;;;;;;44.17;8.45;;;2.50;99.90;;;;;;4162912;28;20025;-82
2021/04/03 05:10:54;;;;;;;43.30;9.20;;;2.50;99.90;;;;;;4162506;28;20029;-82
2021/04/03 05:13:02;;;;;;;40.28;9.60;;;2.40;99.90;;;;;;4162917;28;20039;-82
2021/04/03 05:15:05;;;;;;;50.10;7.90;;;2.40;99.90;;;;;;4144527;28;20026;-81
2021/04/03 05:17:05;;;;;;;31.90;7.53;;;2.30;99.90;;;;;;4163094;28;20896;-81
2021/04/03 05:19:06;;;;;;;38.75;8.73;;;2.40;99.90;;;;;;4162213;28;20069;-81
2021/04/03 05:21:07;;;;;;;40.13;8.30;;;2.30;99.90;;;;;;4163064;28;20056;-81
2021/04/03 05:23:07;;;;;;;37.33;8.27;;;2.20;99.90;;;;;;4145063;28;20105;-81
2021/04/03 05:25:09;;;;;;;35.45;7.97;;;2.30;99.90;;;;;;4164468;28;20036;-81
2021/04/03 05:27:10;;;;;;;42.20;10.27;;;2.30;99.90;;;;;;4166885;28;20120;-81
2021/04/03 05:29:10;;;;;;;35.03;8.15;;;2.30;99.90;;;;;;4148230;28;20069;-81
2021/04/03 05:31:12;;;;;;;35.40;8.23;;;2.30;99.90;;;;;;4166042;28;20034;-81
2021/04/03 05:33:12;;;;;;;40.22;7.60;;;2.30;99.90;;;;;;4147989;28;20030;-80
2021/04/03 05:35:13;;;;;;;42.60;7.72;;;2.40;99.90;;;;;;4165716;28;20064;-81
2021/04/03 05:37:14;;;;;;;37.03;8.40;;;2.40;99.90;;;;;;4148128;28;20095;-81
2021/04/03 05:39:15;;;;;;;39.88;8.48;;;2.40;99.90;;;;;;4165796;28;20037;-81
2021/04/03 05:41:15;;;;;;;40.47;7.68;;;2.50;99.90;;;;;;4165637;28;20060;-81
2021/04/03 05:43:19;;;;;;;40.22;8.20;;;2.60;99.90;;;;;;4147782;28;20030;-81
2021/04/03 05:45:23;;;;;;;51.20;10.63;;;2.70;99.90;;;;;;4165748;28;20080;-81
2021/04/03 05:47:25;;;;;;;44.35;8.38;;;2.70;99.90;;;;;;4148102;28;20029;-81
2021/04/03 05:49:26;;;;;;;45.65;10.32;;;2.60;99.90;;;;;;4136376;28;20030;-81
2021/04/03 05:51:27;;;;;;;36.67;7.40;;;2.70;99.90;;;;;;4147272;28;20030;-82
2021/04/03 05:53:28;;;;;;;55.17;8.70;;;2.80;99.90;;;;;;4164801;28;20022;-81
2021/04/03 05:55:29;;;;;;;48.58;7.95;;;2.80;99.90;;;;;;4165129;28;20033;-81
2021/04/03 05:57:30;;;;;;;41.50;7.85;;;2.80;99.90;;;;;;4147534;28;20041;-82
2021/04/03 05:59:31;;;;;;;50.08;10.25;;;2.80;99.90;;;;;;4147720;28;20056;-81
2021/04/03 06:01:33;;;;;;;35.70;8.45;;;2.80;99.90;;;;;;4147494;28;20802;-81
2021/04/03 06:03:35;;;;;;;35.95;8.57;;;2.90;99.90;;;;;;4147009;28;20017;-81
2021/04/03 06:05:37;;;;;;;35.33;10.15;;;3.00;99.90;;;;;;4148140;28;20477;-80
2021/04/03 06:07:40;;;;;;;40.97;8.57;;;3.10;99.90;;;;;;4158942;28;20017;-82
2021/04/03 06:09:42;;;;;;;43.35;7.75;;;3.20;99.90;;;;;;4147546;28;20161;-81
2021/04/03 06:11:45;;;;;;;42.65;9.50;;;3.30;99.90;;;;;;4165067;28;20033;-82
2021/04/03 06:14:06;;;;;;;43.63;9.18;;;3.40;99.90;;;;;;4164839;28;20053;-83
2021/04/03 06:16:36;;;;;;;44.65;9.00;;;3.60;99.90;;;;;;4147098;28;20037;-81
2021/04/03 06:18:36;;;;;;;46.00;8.57;;;3.70;99.90;;;;;;4134657;28;20447;-82
2021/04/03 06:20:39;;;;;;;35.00;8.60;;;3.90;99.90;;;;;;4148007;28;20041;-83
2021/04/03 06:22:48;;;;;;;51.20;9.93;;;4.10;99.90;;;;;;4164468;28;20118;-81
2021/04/03 06:25:06;;;;;;;32.88;8.05;;;4.30;99.90;;;;;;4146148;28;20030;-81
2021/04/03 06:27:17;;;;;;;38.30;8.13;;;4.50;99.90;;;;;;4134488;28;20117;-82
2021/04/03 06:29:47;;;;;;;28.73;9.18;;;4.70;99.90;;;;;;4127866;28;20034;-83
2021/04/03 06:31:52;;;;;;;43.20;8.75;;;4.80;99.90;;;;;;4134427;28;20038;-83
2021/04/03 06:33:53;;;;;;;35.97;8.52;;;5.00;99.90;;;;;;4156295;28;20056;-82
2021/04/03 06:36:11;;;;;;;28.98;7.57;;;5.20;99.90;;;;;;4155854;28;20076;-83
2021/04/03 06:38:24;;;;;;;31.40;8.98;;;5.40;99.90;;;;;;4149674;28;20806;-82
2021/04/03 06:40:26;;;;;;;27.83;6.78;;;5.60;99.90;;;;;;4161822;28;20075;-82
2021/04/03 06:42:38;;;;;;;44.47;8.88;;;5.70;99.90;;;;;;4133231;28;20038;-82
2021/04/03 06:44:39;;;;;;;40.40;10.50;;;5.90;99.90;;;;;;4129303;28;20137;-83
2021/04/03 06:46:42;;;;;;;38.75;9.75;;;5.90;99.90;;;;;;4130032;28;20274;-83
2021/04/03 06:48:42;;;;;;;39.28;11.75;;;6.00;99.90;;;;;;4128630;28;20603;-82
2021/04/03 06:50:45;;;;;;;28.88;8.82;;;6.10;99.90;;;;;;4131639;28;20088;-83
2021/04/03 06:52:46;;;;;;;34.17;7.72;;;6.20;99.90;;;;;;4115288;28;20031;-83
2021/04/03 06:54:47;;;;;;;34.25;8.80;;;6.30;99.90;;;;;;4126457;28;20037;-83
2021/04/03 06:56:51;;;;;;;34.85;10.40;;;6.50;99.90;;;;;;4127992;28;20053;-83
2021/04/03 06:58:59;;;;;;;36.30;7.88;;;6.50;99.90;;;;;;4129261;28;20563;-84
2021/04/03 07:01:00;;;;;;;29.33;8.82;;;6.50;99.90;;;;;;4132793;28;20500;-84
2021/04/03 07:03:10;;;;;;;41.33;10.85;;;6.60;99.90;;;;;;4130733;28;20046;-83
2021/04/03 07:05:14;;;;;;;31.90;7.80;;;6.70;99.90;;;;;;4129773;28;20114;-83
2021/04/03 07:07:15;;;;;;;35.80;8.60;;;6.80;99.90;;;;;;4130465;28;20531;-81
2021/04/03 07:09:18;;;;;;;38.88;10.70;;;6.90;99.90;;;;;;4131529;28;20105;-82
2021/04/03 07:11:19;;;;;;;22.20;8.90;;;6.90;99.90;;;;;;4131234;28;20100;-84
2021/04/03 07:13:21;;;;;;;44.28;10.18;;;7.00;99.90;;;;;;4127473;28;20026;-84
2021/04/03 07:15:23;;;;;;;40.83;9.32;;;7.10;99.90;;;;;;4129552;28;20030;-83
2021/04/03 07:17:25;;;;;;;37.47;10.48;;;7.20;99.90;;;;;;4131134;28;20035;-85
2021/04/03 07:19:27;;;;;;;35.35;8.05;;;7.30;99.90;;;;;;4127995;28;20105;-81
2021/04/03 07:21:28;;;;;;;43.53;10.82;;;7.30;99.90;;;;;;4131592;28;20034;-84
2021/04/03 07:23:30;;;;;;;37.53;9.30;;;7.40;99.90;;;;;;4131181;28;20489;-83
2021/04/03 07:25:35;;;;;;;35.78;8.73;;;7.40;99.90;;;;;;4130321;28;20053;-83
2021/04/03 07:27:40;;;;;;;29.35;8.95;;;7.40;99.90;;;;;;4130325;28;20143;-82
2021/04/03 07:29:44;;;;;;;22.13;7.30;;;7.40;99.90;;;;;;4128330;28;20043;-83
2021/04/03 07:31:46;;;;;;;30.42;8.77;;;7.60;99.90;;;;;;4131653;28;20114;-83
2021/04/03 07:33:49;;;;;;;31.90;6.85;;;8.40;99.90;;;;;;4128641;28;20038;-83
2021/04/03 07:35:54;;;;;;;29.13;7.97;;;7.80;99.90;;;;;;4129934;28;20733;-82
2021/04/03 07:38:07;;;;;;;29.23;8.23;;;7.90;99.90;;;;;;4130187;28;20034;-82
2021/04/03 07:40:13;;;;;;;27.67;7.78;;;8.00;99.90;;;;;;4130197;28;20553;-82
2021/04/03 07:42:35;;;;;;;47.65;8.38;;;8.20;99.90;;;;;;4148793;28;20030;-82
2021/04/03 07:44:37;;;;;;;34.97;8.50;;;8.30;99.90;;;;;;4163206;28;20040;-84
2021/04/03 07:46:39;;;;;;;29.48;8.45;;;8.40;99.90;;;;;;4145836;28;20034;-83
2021/04/03 07:48:41;;;;;;;38.80;11.50;;;8.30;99.90;;;;;;4160909;28;20041;-84
2021/04/03 07:50:45;;;;;;;42.23;8.20;;;8.20;99.90;;;;;;4156297;28;20030;-82
2021/04/03 07:52:53;;;;;;;42.03;9.70;;;8.10;99.90;;;;;;4163511;28;20086;-81
2021/04/03 07:54:55;;;;;;;71.80;13.60;;;8.10;99.90;;;;;;4144802;28;20044;-82
2021/04/03 07:56:58;;;;;;;30.70;7.97;;;8.20;99.90;;;;;;4163423;28;20026;-80
2021/04/03 07:58:59;;;;;;;46.40;10.50;;;8.20;99.90;;;;;;4163563;28;20056;-83
2021/04/03 08:01:05;;;;;;;33.08;8.10;;;8.30;99.90;;;;;;4163681;28;20029;-83
2021/04/03 08:03:06;;;;;;;21.55;7.57;;;8.30;99.90;;;;;;4146295;28;20038;-81
2021/04/03 08:05:12;;;;;;;68.50;13.65;;;8.10;99.90;;;;;;4146660;28;20037;-84
2021/04/03 08:07:13;;;;;;;34.22;8.43;;;8.00;99.90;;;;;;4172246;28;20029;-81
2021/04/03 08:09:16;;;;;;;34.72;8.38;;;7.90;99.90;;;;;;4146429;28;20034;-83
2021/04/03 08:11:18;;;;;;;55.00;11.73;;;7.90;99.90;;;;;;4137843;28;20513;-84
2021/04/03 08:13:20;;;;;;;61.83;13.70;;;7.80;99.90;;;;;;4162611;28;20432;-85
2021/04/03 08:15:22;;;;;;;71.88;12.77;;;7.70;99.90;;;;;;4162636;28;20033;-84
2021/04/03 08:17:24;;;;;;;30.55;7.97;;;7.80;99.90;;;;;;4145766;28;20162;-85
2021/04/03 08:19:26;;;;;;;34.90;8.20;;;8.00;99.90;;;;;;4145507;28;20030;-85
2021/04/03 08:21:29;;;;;;;40.22;8.48;;;8.20;99.90;;;;;;4142079;28;20049;-86
2021/04/03 08:23:41;;;;;;;62.30;11.10;;;8.30;99.90;;;;;;4160576;28;20560;-83
2021/04/03 08:25:53;;;;;;;35.70;7.88;;;8.50;99.90;;;;;;4141795;28;20114;-81
2021/04/03 08:27:54;;;;;;;65.30;14.02;;;8.70;99.90;;;;;;4141740;28;20030;-84
2021/04/03 08:29:57;;;;;;;38.08;8.48;;;8.70;99.90;;;;;;4145709;28;20088;-85
2021/04/03 08:32:00;;;;;;;33.35;7.40;;;8.80;99.90;;;;;;4160995;28;20055;-84
2021/04/03 08:34:04;;;;;;;26.85;7.22;;;8.90;99.90;;;;;;4163253;28;20087;-85
2021/04/03 08:36:13;;;;;;;23.38;8.45;;;8.90;99.90;;;;;;4145509;28;20084;-83
2021/04/03 08:38:23;;;;;;;29.77;8.35;;;8.80;99.90;;;;;;4146645;28;20034;-82
2021/04/03 08:40:31;;;;;;;32.75;9.60;;;8.70;99.90;;;;;;4137004;28;20030;-82
2021/04/03 08:42:33;;;;;;;28.08;7.28;;;8.50;99.90;;;;;;4162314;28;20044;-83
2021/04/03 08:44:34;;;;;;;34.20;8.27;;;8.50;99.90;;;;;;4161796;28;20026;-84
2021/04/03 08:46:34;;;;;;;29.30;9.20;;;8.40;99.90;;;;;;4144350;28;20159;-83
2021/04/03 08:48:40;;;;;;;28.17;7.32;;;8.20;99.90;;;;;;4144018;28;20038;-83
2021/04/03 08:50:43;;;;;;;21.10;4.90;;;8.20;99.90;;;;;;4144167;28;20081;-82
2021/04/03 08:52:44;;;;;;;32.20;9.90;;;8.30;99.90;;;;;;4135808;28;20037;-82
2021/04/03 08:54:44;;;;;;;33.92;8.60;;;8.30;99.90;;;;;;4160458;28;20025;-81
2021/04/03 08:56:46;;;;;;;52.17;12.27;;;8.50;99.90;;;;;;4139508;28;20728;-81
2021/04/03 08:58:47;;;;;;;123.38;19.98;;;8.70;99.90;;;;;;4151222;28;20030;-81
2021/04/03 09:00:50;;;;;;;90.10;16.17;;;8.70;99.90;;;;;;4148304;28;20493;-82
2021/04/03 09:02:53;;;;;;;34.38;9.73;;;8.90;99.90;;;;;;4147868;28;20042;-83
2021/04/03 09:04:53;;;;;;;38.95;8.77;;;8.90;99.90;;;;;;4148063;28;20022;-82
2021/04/03 09:06:55;;;;;;;32.70;9.00;;;9.10;99.90;;;;;;4147690;28;20026;-82
2021/04/03 09:09:28;;;;;;;23.33;7.28;;;9.20;99.90;;;;;;4148406;28;20118;-82
2021/04/03 09:11:29;;;;;;;26.17;7.37;;;9.10;99.90;;;;;;4115274;28;20116;-82
2021/04/03 09:13:37;;;;;;;35.63;7.85;;;8.90;99.90;;;;;;4148097;28;20528;-83
2021/04/03 09:15:40;;;;;;;25.23;6.68;;;8.80;99.90;;;;;;4147109;28;20421;-84
2021/04/03 09:17:49;;;;;;;30.08;8.82;;;8.80;99.90;;;;;;4160014;28;20120;-82
2021/04/03 09:19:51;;;;;;;30.98;8.90;;;9.00;99.90;;;;;;4147417;28;20084;-83
2021/04/03 09:21:52;;;;;;;32.45;7.53;;;9.20;99.90;;;;;;4165419;28;20480;-83
2021/04/03 09:23:55;;;;;;;24.67;7.43;;;9.60;99.90;;;;;;4148040;28;20504;-84
2021/04/03 09:26:03;;;;;;;21.70;7.53;;;9.80;99.90;;;;;;4147983;28;20121;-83
2021/04/03 09:28:14;;;;;;;37.28;9.02;;;9.80;99.90;;;;;;4164659;28;20025;-83
2021/04/03 09:30:15;;;;;;;33.47;8.13;;;9.80;99.90;;;;;;4147163;28;20018;-84
2021/04/03 09:32:17;;;;;;;27.33;7.43;;;9.70;99.90;;;;;;4147478;28;20038;-83
2021/04/03 09:34:18;;;;;;;27.83;7.30;;;9.80;99.90;;;;;;4139408;28;20034;-82
2021/04/03 09:36:19;;;;;;;29.98;7.55;;;9.80;99.90;;;;;;4153643;28;20064;-82
2021/04/03 09:38:29;;;;;;;31.17;6.97;;;9.80;99.90;;;;;;4165197;28;20092;-82
2021/04/03 09:40:42;;;;;;;23.13;6.95;;;9.80;99.90;;;;;;4147384;28;20038;-83
2021/04/03 09:42:55;;;;;;;20.95;7.30;;;9.60;99.90;;;;;;4147361;28;20046;-84
2021/04/03 09:44:58;;;;;;;43.25;8.45;;;9.40;99.90;;;;;;4148200;28;20068;-83
2021/04/03 09:47:00;;;;;;;19.70;6.97;;;9.30;99.90;;;;;;4162084;28;20072;-82
2021/04/03 09:49:01;;;;;;;29.80;7.55;;;9.30;99.90;;;;;;4148080;28;20649;-83
2021/04/03 09:51:05;;;;;;;30.35;7.20;;;9.70;99.90;;;;;;4162278;28;20042;-81
2021/04/03 09:53:10;;;;;;;25.70;6.80;;;10.20;99.90;;;;;;4146365;28;20037;-81
2021/04/03 09:55:11;;;;;;;23.02;7.30;;;10.80;99.90;;;;;;4145362;28;20136;-83
2021/04/03 09:57:13;;;;;;;30.40;8.00;;;11.20;99.90;;;;;;4146627;28;20417;-81
2021/04/03 09:59:14;;;;;;;19.85;6.68;;;11.40;99.90;;;;;;4164029;28;20388;-80
2021/04/03 10:01:15;;;;;;;25.60;6.43;;;11.40;99.90;;;;;;4165028;28;20049;-82
2021/04/03 10:03:17;;;;;;;23.02;6.43;;;11.40;99.90;;;;;;4163233;28;20045;-84
2021/04/03 10:05:18;;;;;;;25.98;8.30;;;11.70;99.90;;;;;;4144003;28;20030;-84
2021/04/03 10:07:18;;;;;;;30.45;7.15;;;11.70;99.90;;;;;;4163777;28;20094;-86
2021/04/03 10:09:19;;;;;;;23.13;7.00;;;11.00;99.90;;;;;;4161881;28;20025;-84
2021/04/03 10:11:22;;;;;;;29.70;7.32;;;;;;;;;;4161016;28;20025;-83
2021/04/03 10:13:23;;;;;;;16.85;7.10;;;13.50;99.90;;;;;;4144838;28;20038;-83
2021/04/03 10:15:24;;;;;;;27.23;6.13;;;13.50;99.90;;;;;;4161878;28;20055;-84
2021/04/03 10:17:25;;;;;;;15.73;7.55;;;14.00;99.90;;;;;;4162993;28;20033;-84
2021/04/03 10:19:26;;;;;;;21.17;7.68;;;14.30;99.90;;;;;;4145648;28;20488;-85
2021/04/03 10:21:26;;;;;;;23.48;6.70;;;14.50;99.90;;;;;;4163085;28;20037;-85
2021/04/03 10:23:27;;;;;;;22.23;6.47;;;14.30;99.90;;;;;;4146722;28;20117;-87
2021/04/03 10:25:28;;;;;;;22.48;6.63;;;13.80;99.90;;;;;;4146956;28;20489;-86
2021/04/03 10:27:29;;;;;;;30.52;7.40;;;13.30;99.90;;;;;;4160307;28;20048;-83
2021/04/03 10:29:29;;;;;;;23.63;6.38;;;13.10;99.90;;;;;;4156306;28;20553;-82
2021/04/03 10:31:30;;;;;;;21.42;8.20;;;13.00;99.90;;;;;;4139567;28;20167;-82
2021/04/03 10:33:30;;;;;;;22.63;6.68;;;12.90;99.90;;;;;;4162531;28;20597;-83
2021/04/03 10:35:31;;;;;;;25.17;6.70;;;12.70;99.90;;;;;;4163764;28;20373;-87
2021/04/03 10:37:32;;;;;;;19.27;7.47;;;12.70;99.90;;;;;;4137932;28;20072;-84
2021/04/03 10:39:33;;;;;;;17.25;6.43;;;13.60;99.90;;;;;;4145641;28;20030;-86
2021/04/03 10:41:34;;;;;;;19.50;5.97;;;14.60;99.90;;;;;;4139914;28;20042;-84